DLH309 KLAX-EDDF
Flight info
| Callsign | DLH309 |
|---|---|
| Flight time | N/A |
| Altitude | 35000 |
| Route | OSHNN1 BEALE Q842 WINEN DCT EHK DCT OCS/N0472F370 DCT KU75S DCT KD84U DCT KU06W DCT KP18Y DCT AMENU DCT YTH DCT YEK DCT 63N090W/N0459F390 66N080W 6730N07000W/M081F390 DCT BOPUT DCT 69N060W 70N050W 7030N04000W 7030N03000W 69N020W 66N010W DCT SOSAR/N0454F390 DCT ASKAM DCT VENAS DCT LONAM DCT SOGPO DCT DIXAT DIXAT1A |
| Aircraft | A333/H-SDE3GHIJ2J3J5M1RVWXY/LB2D1 |
Departure
| Time | 2026-04-24 22:28 |
|---|---|
| Airport | Los Angeles International Airport (KLAX) |
Arrival
| Time | N/A |
|---|---|
| Airport | Frankfurt Main Airport (EDDF) |
| Time | Latitude | Longitude | Altitude | Speed | Heading |
|---|---|---|---|---|---|
| 2026-04-24 22:07 | 33.94261 | -118.41119 | 136 ft | 0 kts | 83° |
| 2026-04-24 22:10 | 33.94261 | -118.41125 | 127 ft | 3 kts | 83° |
| 2026-04-24 22:11 | 33.94259 | -118.41148 | 127 ft | 3 kts | 83° |
| 2026-04-24 22:11 | 33.94256 | -118.41170 | 125 ft | 3 kts | 87° |
| 2026-04-24 22:11 | 33.94259 | -118.41193 | 126 ft | 3 kts | 133° |
| 2026-04-24 22:11 | 33.94274 | -118.41206 | 125 ft | 1 kts | 168° |
| 2026-04-24 22:14 | 33.94270 | -118.41205 | 128 ft | 2 kts | 169° |
| 2026-04-24 22:14 | 33.94254 | -118.41205 | 124 ft | 3 kts | 181° |
| 2026-04-24 22:15 | 33.94224 | -118.41209 | 126 ft | 5 kts | 189° |
| 2026-04-24 22:15 | 33.94186 | -118.41209 | 124 ft | 6 kts | 173° |
| 2026-04-24 22:15 | 33.94136 | -118.41202 | 127 ft | 8 kts | 173° |
| 2026-04-24 22:15 | 33.94075 | -118.41194 | 127 ft | 9 kts | 173° |
| 2026-04-24 22:16 | 33.94012 | -118.41184 | 124 ft | 9 kts | 172° |
| 2026-04-24 22:16 | 33.93950 | -118.41174 | 126 ft | 9 kts | 173° |
| 2026-04-24 22:16 | 33.93888 | -118.41165 | 127 ft | 9 kts | 173° |
| 2026-04-24 22:16 | 33.93826 | -118.41156 | 126 ft | 9 kts | 173° |
| 2026-04-24 22:17 | 33.93777 | -118.41124 | 125 ft | 8 kts | 127° |
| 2026-04-24 22:17 | 33.93770 | -118.41064 | 126 ft | 7 kts | 85° |
| 2026-04-24 22:17 | 33.93775 | -118.41003 | 129 ft | 7 kts | 84° |
| 2026-04-24 22:17 | 33.93781 | -118.40941 | 127 ft | 8 kts | 83° |
| 2026-04-24 22:18 | 33.93787 | -118.40876 | 129 ft | 8 kts | 82° |
| 2026-04-24 22:18 | 33.93795 | -118.40810 | 125 ft | 8 kts | 82° |
| 2026-04-24 22:18 | 33.93803 | -118.40743 | 126 ft | 8 kts | 82° |
| 2026-04-24 22:18 | 33.93810 | -118.40674 | 125 ft | 9 kts | 83° |
| 2026-04-24 22:19 | 33.93817 | -118.40597 | 127 ft | 10 kts | 83° |
| 2026-04-24 22:19 | 33.93826 | -118.40508 | 125 ft | 11 kts | 83° |
| 2026-04-24 22:19 | 33.93836 | -118.40409 | 125 ft | 13 kts | 83° |
| 2026-04-24 22:19 | 33.93847 | -118.40300 | 129 ft | 13 kts | 83° |
| 2026-04-24 22:20 | 33.93859 | -118.40188 | 129 ft | 13 kts | 83° |
| 2026-04-24 22:20 | 33.93870 | -118.40076 | 126 ft | 13 kts | 83° |
| 2026-04-24 22:20 | 33.93882 | -118.39964 | 127 ft | 13 kts | 83° |
| 2026-04-24 22:20 | 33.93893 | -118.39855 | 126 ft | 13 kts | 83° |
| 2026-04-24 22:21 | 33.93905 | -118.39744 | 128 ft | 13 kts | 83° |
| 2026-04-24 22:21 | 33.93916 | -118.39633 | 129 ft | 13 kts | 83° |
| 2026-04-24 22:21 | 33.93928 | -118.39523 | 126 ft | 13 kts | 83° |
| 2026-04-24 22:21 | 33.93939 | -118.39412 | 125 ft | 13 kts | 83° |
| 2026-04-24 22:22 | 33.93950 | -118.39303 | 127 ft | 13 kts | 83° |
| 2026-04-24 22:22 | 33.93960 | -118.39194 | 127 ft | 13 kts | 83° |
| 2026-04-24 22:22 | 33.93971 | -118.39085 | 127 ft | 13 kts | 83° |
| 2026-04-24 22:22 | 33.93982 | -118.38984 | 127 ft | 11 kts | 82° |
| 2026-04-24 22:23 | 33.93992 | -118.38893 | 129 ft | 11 kts | 82° |
| 2026-04-24 22:23 | 33.94002 | -118.38801 | 126 ft | 11 kts | 83° |
| 2026-04-24 22:23 | 33.94011 | -118.38708 | 125 ft | 11 kts | 83° |
| 2026-04-24 22:23 | 33.94020 | -118.38615 | 127 ft | 11 kts | 83° |
| 2026-04-24 22:24 | 33.94029 | -118.38522 | 127 ft | 11 kts | 83° |
| 2026-04-24 22:24 | 33.94039 | -118.38429 | 125 ft | 11 kts | 83° |
| 2026-04-24 22:24 | 33.94048 | -118.38336 | 128 ft | 11 kts | 83° |
| 2026-04-24 22:24 | 33.94058 | -118.38242 | 127 ft | 11 kts | 83° |
| 2026-04-24 22:25 | 33.94068 | -118.38147 | 129 ft | 11 kts | 83° |
| 2026-04-24 22:25 | 33.94075 | -118.38056 | 128 ft | 10 kts | 91° |
| 2026-04-24 22:25 | 33.94038 | -118.37998 | 124 ft | 9 kts | 154° |
| 2026-04-24 22:25 | 33.93990 | -118.38014 | 124 ft | 6 kts | 229° |
| 2026-04-24 22:26 | 33.93981 | -118.38060 | 124 ft | 6 kts | 262° |
| 2026-04-24 22:26 | 33.93976 | -118.38107 | 129 ft | 6 kts | 262° |
| 2026-04-24 22:26 | 33.93971 | -118.38152 | 127 ft | 5 kts | 262° |
| 2026-04-24 22:26 | 33.93963 | -118.38230 | 126 ft | 16 kts | 263° |
| 2026-04-24 22:27 | 33.93930 | -118.38556 | 128 ft | 67 kts | 263° |
| 2026-04-24 22:27 | 33.93848 | -118.39340 | 129 ft | 120 kts | 264° |
| 2026-04-24 22:27 | 33.93728 | -118.40541 | 209 ft | 162 kts | 261° |
| 2026-04-24 22:27 | 33.93562 | -118.41934 | 654 ft | 178 kts | 259° |
| 2026-04-24 22:28 | 33.93375 | -118.43416 | 1447 ft | 181 kts | 258° |
| 2026-04-24 22:28 | 33.93187 | -118.44980 | 1875 ft | 197 kts | 257° |
| 2026-04-24 22:28 | 33.92653 | -118.46574 | 2115 ft | 215 kts | 236° |
| 2026-04-24 22:28 | 33.91743 | -118.48101 | 2359 ft | 231 kts | 231° |
| 2026-04-24 22:29 | 33.89574 | -118.51225 | 2968 ft | 254 kts | 229° |
| 2026-04-24 22:29 | 33.88428 | -118.52847 | 3496 ft | 259 kts | 229° |
| 2026-04-24 22:29 | 33.87221 | -118.54466 | 4156 ft | 260 kts | 223° |
| 2026-04-24 22:30 | 33.85703 | -118.55634 | 4717 ft | 262 kts | 201° |
| 2026-04-24 22:30 | 33.83898 | -118.55921 | 4956 ft | 265 kts | 177° |
| 2026-04-24 22:30 | 33.82072 | -118.55542 | 4994 ft | 268 kts | 169° |
| 2026-04-24 22:30 | 33.80862 | -118.55199 | 4987 ft | 269 kts | 168° |
| 2026-04-24 22:31 | 33.79042 | -118.54668 | 4986 ft | 269 kts | 168° |
| 2026-04-24 22:31 | 33.77217 | -118.54145 | 4986 ft | 269 kts | 169° |
| 2026-04-24 22:31 | 33.75382 | -118.53632 | 4984 ft | 269 kts | 169° |
| 2026-04-24 22:31 | 33.73576 | -118.53135 | 4980 ft | 269 kts | 168° |
| 2026-04-24 22:32 | 33.71750 | -118.52555 | 4982 ft | 270 kts | 160° |
| 2026-04-24 22:32 | 33.70123 | -118.51414 | 4980 ft | 272 kts | 139° |
| 2026-04-24 22:32 | 33.69009 | -118.49620 | 5028 ft | 274 kts | 116° |
| 2026-04-24 22:32 | 33.68299 | -118.47486 | 5365 ft | 277 kts | 110° |
| 2026-04-24 22:33 | 33.67664 | -118.45280 | 6034 ft | 280 kts | 110° |
| 2026-04-24 22:33 | 33.67027 | -118.43059 | 6691 ft | 282 kts | 110° |
| 2026-04-24 22:33 | 33.66425 | -118.40989 | 7235 ft | 286 kts | 110° |
| 2026-04-24 22:33 | 33.65757 | -118.38716 | 7832 ft | 291 kts | 110° |
| 2026-04-24 22:34 | 33.65075 | -118.36407 | 8425 ft | 295 kts | 111° |
| 2026-04-24 22:34 | 33.64536 | -118.33991 | 9007 ft | 302 kts | 98° |
| 2026-04-24 22:34 | 33.64419 | -118.31455 | 9622 ft | 306 kts | 91° |
| 2026-04-24 22:34 | 33.64419 | -118.28917 | 10152 ft | 312 kts | 90° |
| 2026-04-24 22:35 | 33.64434 | -118.26246 | 10399 ft | 327 kts | 90° |
| 2026-04-24 22:35 | 33.64447 | -118.23456 | 10607 ft | 343 kts | 90° |
| 2026-04-24 22:35 | 33.64680 | -118.20518 | 10821 ft | 360 kts | 77° |
| 2026-04-24 22:35 | 33.65631 | -118.17682 | 11015 ft | 374 kts | 56° |
| 2026-04-24 22:36 | 33.67356 | -118.15338 | 11213 ft | 385 kts | 38° |
| 2026-04-24 22:36 | 33.69497 | -118.13339 | 11556 ft | 394 kts | 34° |
| 2026-04-24 22:36 | 33.71737 | -118.11374 | 12045 ft | 400 kts | 33° |
| 2026-04-24 22:36 | 33.74004 | -118.09381 | 12540 ft | 405 kts | 33° |
| 2026-04-24 22:37 | 33.76281 | -118.07363 | 13029 ft | 409 kts | 33° |
| 2026-04-24 22:37 | 33.78559 | -118.05333 | 13540 ft | 413 kts | 34° |
| 2026-04-24 22:37 | 33.80881 | -118.03255 | 14023 ft | 417 kts | 34° |
| 2026-04-24 22:37 | 33.83216 | -118.01160 | 14499 ft | 420 kts | 34° |
| 2026-04-24 22:38 | 33.85573 | -117.99042 | 14969 ft | 424 kts | 33° |
| 2026-04-24 22:38 | 33.87921 | -117.96930 | 15439 ft | 427 kts | 33° |
| 2026-04-24 22:38 | 33.90315 | -117.94774 | 15887 ft | 431 kts | 33° |
| 2026-04-24 22:38 | 33.92725 | -117.92583 | 16331 ft | 435 kts | 33° |
| 2026-04-24 22:39 | 33.95154 | -117.90364 | 16774 ft | 439 kts | 33° |
| 2026-04-24 22:39 | 33.97600 | -117.88128 | 17218 ft | 442 kts | 33° |
| 2026-04-24 22:39 | 34.00074 | -117.85865 | 17650 ft | 447 kts | 33° |
| 2026-04-24 22:39 | 34.02560 | -117.83589 | 18074 ft | 450 kts | 33° |
| 2026-04-24 22:40 | 34.05035 | -117.81322 | 18441 ft | 453 kts | 32° |
| 2026-04-24 22:40 | 34.07552 | -117.78998 | 18811 ft | 457 kts | 34° |
| 2026-04-24 22:40 | 34.09875 | -117.76332 | 19171 ft | 466 kts | 44° |
| 2026-04-24 22:40 | 34.11990 | -117.73321 | 19535 ft | 470 kts | 47° |
| 2026-04-24 22:41 | 34.14033 | -117.70281 | 19889 ft | 474 kts | 47° |
| 2026-04-24 22:41 | 34.16118 | -117.67164 | 20246 ft | 477 kts | 47° |
| 2026-04-24 22:41 | 34.18215 | -117.64038 | 20596 ft | 480 kts | 46° |
| 2026-04-24 22:41 | 34.20330 | -117.60886 | 20901 ft | 483 kts | 46° |
| 2026-04-24 22:42 | 34.22460 | -117.57715 | 21222 ft | 486 kts | 46° |
| 2026-04-24 22:42 | 34.24567 | -117.54571 | 21583 ft | 488 kts | 46° |
| 2026-04-24 22:42 | 34.26713 | -117.51369 | 21866 ft | 492 kts | 46° |
| 2026-04-24 22:42 | 34.28884 | -117.48129 | 22097 ft | 496 kts | 46° |
| 2026-04-24 22:43 | 34.31058 | -117.44881 | 22486 ft | 497 kts | 46° |
| 2026-04-24 22:43 | 34.33216 | -117.41657 | 22875 ft | 498 kts | 45° |
| 2026-04-24 22:43 | 34.35406 | -117.38384 | 23187 ft | 502 kts | 45° |
| 2026-04-24 22:43 | 34.37617 | -117.35077 | 23494 ft | 504 kts | 45° |
| 2026-04-24 22:44 | 34.39836 | -117.31755 | 23749 ft | 507 kts | 45° |
| 2026-04-24 22:44 | 34.42063 | -117.28416 | 24017 ft | 510 kts | 45° |
| 2026-04-24 22:44 | 34.44295 | -117.25065 | 24268 ft | 513 kts | 46° |
| 2026-04-24 22:44 | 34.46512 | -117.21733 | 24561 ft | 515 kts | 46° |
| 2026-04-24 22:45 | 34.48777 | -117.18328 | 24785 ft | 518 kts | 46° |
| 2026-04-24 22:45 | 34.51041 | -117.14919 | 25062 ft | 520 kts | 46° |
| 2026-04-24 22:45 | 34.53323 | -117.11481 | 25337 ft | 522 kts | 46° |
| 2026-04-24 22:45 | 34.55635 | -117.08055 | 25577 ft | 525 kts | 45° |
| 2026-04-24 22:46 | 34.57953 | -117.04682 | 25783 ft | 528 kts | 45° |
| 2026-04-24 22:46 | 34.60324 | -117.01236 | 25999 ft | 532 kts | 45° |
| 2026-04-24 22:46 | 34.62704 | -116.97772 | 26290 ft | 533 kts | 45° |
| 2026-04-24 22:46 | 34.65063 | -116.94333 | 26560 ft | 535 kts | 45° |
| 2026-04-24 22:47 | 34.67465 | -116.90826 | 26829 ft | 537 kts | 45° |
| 2026-04-24 22:47 | 34.69863 | -116.87318 | 27074 ft | 540 kts | 45° |
| 2026-04-24 22:47 | 34.72267 | -116.83800 | 27326 ft | 543 kts | 45° |
| 2026-04-24 22:47 | 34.74684 | -116.80254 | 27570 ft | 546 kts | 45° |
| 2026-04-24 22:48 | 34.77089 | -116.76730 | 27786 ft | 549 kts | 45° |
| 2026-04-24 22:48 | 34.79533 | -116.73150 | 28086 ft | 550 kts | 45° |
| 2026-04-24 22:48 | 34.81978 | -116.69551 | 28278 ft | 552 kts | 45° |
| 2026-04-24 22:48 | 34.84434 | -116.65932 | 28492 ft | 555 kts | 45° |
| 2026-04-24 22:49 | 34.86967 | -116.62369 | 28725 ft | 555 kts | 43° |
| 2026-04-24 22:49 | 34.89555 | -116.58912 | 28975 ft | 555 kts | 42° |
| 2026-04-24 22:49 | 34.92180 | -116.55426 | 29366 ft | 555 kts | 42° |
| 2026-04-24 22:49 | 34.94792 | -116.51950 | 29631 ft | 557 kts | 42° |
| 2026-04-24 22:50 | 34.97376 | -116.48503 | 29917 ft | 558 kts | 42° |
| 2026-04-24 22:50 | 34.99988 | -116.45008 | 30170 ft | 558 kts | 42° |
| 2026-04-24 22:50 | 35.02607 | -116.41498 | 30442 ft | 558 kts | 42° |
| 2026-04-24 22:50 | 35.05221 | -116.37989 | 30710 ft | 558 kts | 42° |
| 2026-04-24 22:51 | 35.07838 | -116.34473 | 30978 ft | 557 kts | 42° |
| 2026-04-24 22:51 | 35.10415 | -116.31005 | 31224 ft | 558 kts | 42° |
| 2026-04-24 22:51 | 35.13030 | -116.27486 | 31449 ft | 558 kts | 42° |
| 2026-04-24 22:51 | 35.15639 | -116.23969 | 31735 ft | 556 kts | 43° |
| 2026-04-24 22:52 | 35.18232 | -116.20465 | 32061 ft | 556 kts | 43° |
| 2026-04-24 22:52 | 35.20846 | -116.16932 | 32212 ft | 558 kts | 43° |
| 2026-04-24 22:52 | 35.23444 | -116.13420 | 32555 ft | 556 kts | 42° |
| 2026-04-24 22:52 | 35.26006 | -116.09951 | 32849 ft | 555 kts | 42° |
| 2026-04-24 22:53 | 35.28600 | -116.06437 | 33074 ft | 556 kts | 42° |
| 2026-04-24 22:53 | 35.31192 | -116.02922 | 33314 ft | 555 kts | 42° |
| 2026-04-24 22:53 | 35.33779 | -115.99410 | 33588 ft | 555 kts | 42° |
| 2026-04-24 22:53 | 35.36365 | -115.95894 | 33820 ft | 555 kts | 42° |
| 2026-04-24 22:54 | 35.38958 | -115.92365 | 34029 ft | 555 kts | 42° |
| 2026-04-24 22:54 | 35.41510 | -115.88889 | 34233 ft | 555 kts | 42° |
| 2026-04-24 22:54 | 35.44089 | -115.85371 | 34478 ft | 553 kts | 42° |
| 2026-04-24 22:54 | 35.46655 | -115.81867 | 34755 ft | 549 kts | 43° |
| 2026-04-24 22:55 | 35.51687 | -115.74981 | 34851 ft | 535 kts | 42° |
| 2026-04-24 22:55 | 35.56620 | -115.68224 | 34851 ft | 526 kts | 42° |
| 2026-04-24 22:56 | 35.61462 | -115.61579 | 34855 ft | 522 kts | 42° |
| 2026-04-24 22:56 | 35.66305 | -115.54925 | 34854 ft | 522 kts | 42° |
| 2026-04-24 22:57 | 35.71120 | -115.48291 | 34859 ft | 522 kts | 42° |
| 2026-04-24 22:57 | 35.75948 | -115.41622 | 34857 ft | 522 kts | 43° |
| 2026-04-24 22:58 | 35.80788 | -115.34926 | 34853 ft | 522 kts | 43° |
| 2026-04-24 22:58 | 35.85615 | -115.28231 | 34854 ft | 523 kts | 42° |
| 2026-04-24 22:59 | 35.90463 | -115.21495 | 34867 ft | 523 kts | 43° |
| 2026-04-24 23:00 | 35.97685 | -115.11438 | 34859 ft | 522 kts | 43° |
| 2026-04-24 23:00 | 36.02484 | -115.04737 | 34860 ft | 522 kts | 43° |
| 2026-04-24 23:01 | 36.07298 | -114.98001 | 34811 ft | 521 kts | 42° |
| 2026-04-24 23:01 | 36.12055 | -114.91331 | 34755 ft | 517 kts | 42° |
| 2026-04-24 23:02 | 36.16870 | -114.84697 | 34748 ft | 512 kts | 37° |
| 2026-04-24 23:02 | 36.19586 | -114.81925 | 34746 ft | 499 kts | 24° |
| 2026-04-24 23:02 | 36.22523 | -114.79699 | 34768 ft | 493 kts | 20° |
| 2026-04-24 23:03 | 36.28552 | -114.75638 | 34730 ft | 492 kts | 18° |
| 2026-04-24 23:03 | 36.34589 | -114.71739 | 34716 ft | 492 kts | 18° |
| 2026-04-24 23:04 | 36.40663 | -114.67768 | 34724 ft | 493 kts | 18° |
| 2026-04-24 23:04 | 36.46732 | -114.63747 | 34711 ft | 494 kts | 19° |
| 2026-04-24 23:05 | 36.52793 | -114.59704 | 34714 ft | 493 kts | 19° |
| 2026-04-24 23:05 | 36.58807 | -114.55673 | 34718 ft | 493 kts | 20° |
| 2026-04-24 23:06 | 36.64823 | -114.51634 | 34716 ft | 491 kts | 19° |
| 2026-04-24 23:06 | 36.70867 | -114.47595 | 34730 ft | 493 kts | 20° |
| 2026-04-24 23:07 | 36.76760 | -114.43207 | 34733 ft | 496 kts | 24° |
| 2026-04-24 23:07 | 36.82582 | -114.38561 | 34763 ft | 495 kts | 25° |
| 2026-04-24 23:08 | 36.88358 | -114.33952 | 34748 ft | 495 kts | 25° |
| 2026-04-24 23:08 | 36.94192 | -114.29336 | 34748 ft | 496 kts | 25° |
| 2026-04-24 23:09 | 37.00024 | -114.24738 | 34765 ft | 495 kts | 25° |
| 2026-04-24 23:09 | 37.05852 | -114.20138 | 34765 ft | 493 kts | 25° |
| 2026-04-24 23:10 | 37.11645 | -114.15557 | 34772 ft | 491 kts | 25° |
| 2026-04-24 23:10 | 37.17404 | -114.10995 | 34778 ft | 491 kts | 25° |
| 2026-04-24 23:11 | 37.23159 | -114.06427 | 34788 ft | 491 kts | 25° |
| 2026-04-24 23:11 | 37.28950 | -114.01819 | 34808 ft | 491 kts | 26° |
| 2026-04-24 23:12 | 37.34713 | -113.97224 | 34796 ft | 489 kts | 26° |
| 2026-04-24 23:12 | 37.40455 | -113.92643 | 34799 ft | 495 kts | 26° |
| 2026-04-24 23:13 | 37.46336 | -113.87945 | 34802 ft | 505 kts | 26° |
| 2026-04-24 23:13 | 37.52331 | -113.83147 | 34805 ft | 514 kts | 26° |
| 2026-04-24 23:14 | 37.58383 | -113.78288 | 34803 ft | 519 kts | 27° |
| 2026-04-24 23:14 | 37.64469 | -113.73385 | 34806 ft | 517 kts | 27° |
| 2026-04-24 23:15 | 37.70509 | -113.68511 | 34801 ft | 517 kts | 27° |
| 2026-04-24 23:15 | 37.75560 | -113.64431 | 34793 ft | 517 kts | 27° |
| 2026-04-24 23:16 | 37.81630 | -113.59521 | 34809 ft | 517 kts | 27° |
| 2026-04-24 23:16 | 37.87680 | -113.54615 | 34784 ft | 514 kts | 27° |
| 2026-04-24 23:17 | 37.93569 | -113.49550 | 34789 ft | 518 kts | 35° |
| 2026-04-24 23:17 | 37.99067 | -113.43600 | 34780 ft | 520 kts | 37° |
| 2026-04-24 23:18 | 38.04486 | -113.37458 | 34778 ft | 521 kts | 38° |
| 2026-04-24 23:18 | 38.09843 | -113.31329 | 34789 ft | 520 kts | 38° |
| 2026-04-24 23:19 | 38.15216 | -113.25185 | 34773 ft | 518 kts | 38° |
| 2026-04-24 23:19 | 38.20579 | -113.19062 | 34789 ft | 517 kts | 38° |
| 2026-04-24 23:20 | 38.25946 | -113.12929 | 34812 ft | 517 kts | 38° |
| 2026-04-24 23:20 | 38.31270 | -113.06829 | 34830 ft | 517 kts | 38° |
| 2026-04-24 23:21 | 38.36608 | -113.00717 | 34844 ft | 517 kts | 37° |
| 2026-04-24 23:21 | 38.42070 | -112.94723 | 34837 ft | 516 kts | 36° |
| 2026-04-24 23:22 | 38.47545 | -112.88819 | 34839 ft | 516 kts | 36° |
| 2026-04-24 23:22 | 38.53004 | -112.82908 | 34819 ft | 516 kts | 36° |
| 2026-04-24 23:23 | 38.58483 | -112.76937 | 34807 ft | 516 kts | 36° |
| 2026-04-24 23:23 | 38.63940 | -112.70967 | 34793 ft | 515 kts | 36° |
| 2026-04-24 23:24 | 38.69346 | -112.65040 | 34754 ft | 513 kts | 36° |
| 2026-04-24 23:24 | 38.74766 | -112.59087 | 34760 ft | 512 kts | 36° |
| 2026-04-24 23:25 | 38.80157 | -112.53155 | 34757 ft | 512 kts | 36° |
| 2026-04-24 23:25 | 38.85570 | -112.47186 | 34819 ft | 512 kts | 36° |
| 2026-04-24 23:26 | 38.90982 | -112.41204 | 34833 ft | 512 kts | 36° |
| 2026-04-24 23:26 | 38.96356 | -112.35252 | 34823 ft | 511 kts | 36° |
| 2026-04-24 23:27 | 39.01741 | -112.29276 | 34823 ft | 511 kts | 36° |
| 2026-04-24 23:27 | 39.07099 | -112.23319 | 34807 ft | 511 kts | 36° |
| 2026-04-24 23:28 | 39.12489 | -112.17312 | 34791 ft | 511 kts | 36° |
| 2026-04-24 23:28 | 39.17842 | -112.11334 | 34778 ft | 511 kts | 36° |
| 2026-04-24 23:29 | 39.23231 | -112.05314 | 34762 ft | 512 kts | 36° |
| 2026-04-24 23:29 | 39.28602 | -111.99287 | 34760 ft | 513 kts | 36° |
| 2026-04-24 23:30 | 39.33985 | -111.93236 | 34772 ft | 513 kts | 36° |
| 2026-04-24 23:30 | 39.39370 | -111.87170 | 34767 ft | 512 kts | 36° |
| 2026-04-24 23:31 | 39.44725 | -111.81125 | 34766 ft | 512 kts | 36° |
| 2026-04-24 23:31 | 39.50076 | -111.75072 | 34781 ft | 514 kts | 36° |
| 2026-04-24 23:32 | 39.55487 | -111.68941 | 34775 ft | 516 kts | 36° |
| 2026-04-24 23:32 | 39.60879 | -111.62814 | 34775 ft | 516 kts | 36° |
| 2026-04-24 23:33 | 39.66294 | -111.56649 | 34775 ft | 516 kts | 36° |
| 2026-04-24 23:33 | 39.71660 | -111.50530 | 34785 ft | 516 kts | 36° |
| 2026-04-24 23:34 | 39.77062 | -111.44353 | 34777 ft | 515 kts | 36° |
| 2026-04-24 23:34 | 39.82415 | -111.38218 | 34791 ft | 515 kts | 36° |
| 2026-04-24 23:35 | 39.87775 | -111.32063 | 34776 ft | 514 kts | 36° |
| 2026-04-24 23:35 | 39.93153 | -111.25881 | 34783 ft | 515 kts | 37° |
| 2026-04-24 23:36 | 39.98528 | -111.19682 | 34787 ft | 515 kts | 37° |
| 2026-04-24 23:36 | 40.03860 | -111.13520 | 34795 ft | 515 kts | 36° |
| 2026-04-24 23:37 | 40.09242 | -111.07287 | 34785 ft | 517 kts | 36° |
| 2026-04-24 23:37 | 40.17336 | -110.97890 | 34780 ft | 518 kts | 36° |
| 2026-04-24 23:38 | 40.22685 | -110.91659 | 34782 ft | 518 kts | 37° |
| 2026-04-24 23:38 | 40.28052 | -110.85390 | 34805 ft | 518 kts | 36° |
| 2026-04-24 23:39 | 40.33455 | -110.79072 | 34770 ft | 522 kts | 36° |
| 2026-04-24 23:39 | 40.38890 | -110.72699 | 34774 ft | 523 kts | 37° |
| 2026-04-24 23:40 | 40.44298 | -110.66339 | 34771 ft | 523 kts | 37° |
| 2026-04-24 23:40 | 40.49727 | -110.59943 | 34766 ft | 523 kts | 37° |
| 2026-04-24 23:41 | 40.55114 | -110.53584 | 34782 ft | 523 kts | 36° |
| 2026-04-24 23:41 | 40.60535 | -110.47173 | 34755 ft | 524 kts | 36° |
| 2026-04-24 23:42 | 40.65963 | -110.40738 | 34771 ft | 524 kts | 37° |
| 2026-04-24 23:42 | 40.71377 | -110.34303 | 34773 ft | 524 kts | 37° |
| 2026-04-24 23:43 | 40.76759 | -110.27890 | 34753 ft | 523 kts | 37° |
| 2026-04-24 23:43 | 40.82146 | -110.21459 | 34766 ft | 523 kts | 36° |
| 2026-04-24 23:44 | 40.87550 | -110.14995 | 34742 ft | 523 kts | 36° |
| 2026-04-24 23:44 | 40.92949 | -110.08520 | 34741 ft | 524 kts | 37° |
| 2026-04-24 23:45 | 40.98319 | -110.02065 | 34722 ft | 524 kts | 37° |
| 2026-04-24 23:45 | 41.03655 | -109.95443 | 34720 ft | 525 kts | 38° |
| 2026-04-24 23:46 | 41.08884 | -109.88654 | 34699 ft | 525 kts | 39° |
| 2026-04-24 23:46 | 41.14079 | -109.81870 | 34703 ft | 525 kts | 39° |
| 2026-04-24 23:47 | 41.19309 | -109.75059 | 34694 ft | 526 kts | 39° |
| 2026-04-24 23:47 | 41.24526 | -109.68271 | 34695 ft | 527 kts | 39° |
| 2026-04-24 23:48 | 41.29768 | -109.61441 | 34688 ft | 527 kts | 39° |
| 2026-04-24 23:48 | 41.35009 | -109.54593 | 34701 ft | 527 kts | 39° |
| 2026-04-24 23:49 | 41.40213 | -109.47774 | 34700 ft | 526 kts | 39° |
| 2026-04-24 23:49 | 41.45404 | -109.40959 | 34711 ft | 526 kts | 39° |
| 2026-04-24 23:50 | 41.50632 | -109.34077 | 34762 ft | 526 kts | 39° |
| 2026-04-24 23:50 | 41.55848 | -109.27194 | 34789 ft | 526 kts | 39° |
| 2026-04-24 23:51 | 41.61030 | -109.20341 | 34812 ft | 526 kts | 39° |
| 2026-04-24 23:51 | 41.66230 | -109.13446 | 34808 ft | 525 kts | 39° |
| 2026-04-24 23:52 | 41.71385 | -109.06596 | 34802 ft | 526 kts | 39° |
| 2026-04-24 23:52 | 41.76596 | -108.99657 | 34783 ft | 527 kts | 39° |
| 2026-04-24 23:53 | 41.81775 | -108.92743 | 34760 ft | 527 kts | 39° |
| 2026-04-24 23:53 | 41.86978 | -108.85776 | 34753 ft | 528 kts | 39° |
| 2026-04-24 23:54 | 41.92194 | -108.78778 | 34744 ft | 530 kts | 39° |
| 2026-04-24 23:54 | 41.97392 | -108.71787 | 34747 ft | 531 kts | 39° |
| 2026-04-24 23:55 | 42.02626 | -108.64731 | 34751 ft | 532 kts | 39° |
| 2026-04-24 23:55 | 42.07854 | -108.57663 | 34755 ft | 532 kts | 39° |
| 2026-04-24 23:56 | 42.13046 | -108.50625 | 34770 ft | 533 kts | 39° |
| 2026-04-24 23:56 | 42.18272 | -108.43526 | 34769 ft | 534 kts | 39° |
| 2026-04-24 23:57 | 42.23522 | -108.36377 | 34780 ft | 536 kts | 39° |
| 2026-04-24 23:57 | 42.28763 | -108.29224 | 34793 ft | 537 kts | 39° |
| 2026-04-24 23:58 | 42.34022 | -108.22023 | 34793 ft | 537 kts | 39° |
| 2026-04-24 23:58 | 42.39247 | -108.14852 | 34831 ft | 536 kts | 39° |
| 2026-04-24 23:59 | 42.44471 | -108.07659 | 34827 ft | 532 kts | 39° |
| 2026-04-24 23:59 | 42.49660 | -108.00507 | 34870 ft | 532 kts | 38° |
| 2026-04-25 00:00 | 42.54937 | -107.93551 | 34870 ft | 530 kts | 37° |
| 2026-04-25 00:00 | 42.60290 | -107.86699 | 34920 ft | 530 kts | 36° |
| 2026-04-25 00:01 | 42.64761 | -107.80965 | 34921 ft | 529 kts | 37° |
| 2026-04-25 00:01 | 42.70969 | -107.72935 | 34967 ft | 527 kts | 37° |
| 2026-04-25 00:02 | 42.75398 | -107.67178 | 34966 ft | 528 kts | 37° |
| 2026-04-25 00:02 | 42.80681 | -107.60291 | 34986 ft | 528 kts | 37° |
| 2026-04-25 00:03 | 42.85993 | -107.53352 | 34997 ft | 528 kts | 37° |
| 2026-04-25 00:03 | 42.91317 | -107.46376 | 35023 ft | 528 kts | 38° |
| 2026-04-25 00:04 | 42.96582 | -107.39462 | 35045 ft | 527 kts | 38° |
| 2026-04-25 00:04 | 43.02731 | -107.31367 | 35039 ft | 525 kts | 38° |
| 2026-04-25 00:05 | 43.07115 | -107.25581 | 35053 ft | 525 kts | 38° |
| 2026-04-25 00:05 | 43.12339 | -107.18671 | 35063 ft | 525 kts | 38° |
| 2026-04-25 00:06 | 43.17607 | -107.11685 | 35056 ft | 525 kts | 38° |
| 2026-04-25 00:06 | 43.22816 | -107.04759 | 35049 ft | 524 kts | 38° |
| 2026-04-25 00:07 | 43.28059 | -106.97771 | 35058 ft | 523 kts | 38° |
| 2026-04-25 00:07 | 43.33282 | -106.90789 | 35053 ft | 523 kts | 38° |
| 2026-04-25 00:08 | 43.38484 | -106.83821 | 35061 ft | 523 kts | 39° |
| 2026-04-25 00:08 | 43.43655 | -106.76875 | 35061 ft | 522 kts | 39° |
| 2026-04-25 00:09 | 43.48686 | -106.70099 | 35055 ft | 522 kts | 39° |
| 2026-04-25 00:09 | 43.53887 | -106.63081 | 35053 ft | 523 kts | 39° |
| 2026-04-25 00:10 | 43.59076 | -106.56062 | 35062 ft | 524 kts | 39° |
| 2026-04-25 00:10 | 43.64263 | -106.49024 | 35050 ft | 524 kts | 39° |
| 2026-04-25 00:11 | 43.69467 | -106.41943 | 35044 ft | 524 kts | 39° |
| 2026-04-25 00:11 | 43.74670 | -106.34848 | 35042 ft | 524 kts | 39° |
| 2026-04-25 00:12 | 43.79846 | -106.27771 | 35043 ft | 525 kts | 39° |
| 2026-04-25 00:12 | 43.85049 | -106.20641 | 35054 ft | 526 kts | 40° |
| 2026-04-25 00:13 | 43.90226 | -106.13526 | 35043 ft | 525 kts | 40° |
| 2026-04-25 00:13 | 43.95421 | -106.06367 | 35036 ft | 525 kts | 40° |
| 2026-04-25 00:14 | 44.00766 | -105.99516 | 35042 ft | 519 kts | 31° |
| 2026-04-25 00:14 | 44.06578 | -105.93663 | 35028 ft | 518 kts | 29° |
| 2026-04-25 00:15 | 44.12509 | -105.87954 | 35031 ft | 516 kts | 29° |
| 2026-04-25 00:15 | 44.18414 | -105.82305 | 35032 ft | 514 kts | 29° |
| 2026-04-25 00:16 | 44.24290 | -105.76651 | 35024 ft | 515 kts | 29° |
| 2026-04-25 00:16 | 44.30194 | -105.70938 | 34998 ft | 515 kts | 30° |
| 2026-04-25 00:17 | 44.36042 | -105.65257 | 34971 ft | 512 kts | 30° |
| 2026-04-25 00:17 | 44.41888 | -105.59563 | 34972 ft | 511 kts | 30° |
| 2026-04-25 00:18 | 44.47745 | -105.53849 | 34978 ft | 512 kts | 30° |
| 2026-04-25 00:18 | 44.53565 | -105.48158 | 34998 ft | 512 kts | 30° |
| 2026-04-25 00:19 | 44.59370 | -105.42462 | 34989 ft | 509 kts | 30° |
| 2026-04-25 00:19 | 44.65177 | -105.36752 | 34999 ft | 508 kts | 30° |
| 2026-04-25 00:20 | 44.70945 | -105.31068 | 35000 ft | 509 kts | 30° |
| 2026-04-25 00:20 | 44.76758 | -105.25325 | 35003 ft | 509 kts | 31° |
| 2026-04-25 00:21 | 44.82526 | -105.19610 | 34995 ft | 507 kts | 31° |
| 2026-04-25 00:21 | 44.88272 | -105.13904 | 34994 ft | 507 kts | 31° |
| 2026-04-25 00:22 | 44.94045 | -105.08159 | 34996 ft | 507 kts | 31° |
| 2026-04-25 00:22 | 44.99811 | -105.02404 | 34999 ft | 506 kts | 31° |
| 2026-04-25 00:23 | 45.05525 | -104.96685 | 34993 ft | 504 kts | 31° |
| 2026-04-25 00:23 | 45.11264 | -104.90929 | 35000 ft | 504 kts | 31° |
| 2026-04-25 00:24 | 45.16960 | -104.85203 | 34998 ft | 504 kts | 31° |
| 2026-04-25 00:24 | 45.22657 | -104.79460 | 35008 ft | 503 kts | 32° |
| 2026-04-25 00:25 | 45.28359 | -104.73696 | 34999 ft | 502 kts | 32° |
| 2026-04-25 00:25 | 45.34022 | -104.67959 | 35005 ft | 502 kts | 32° |
| 2026-04-25 00:26 | 45.39720 | -104.62173 | 35006 ft | 502 kts | 32° |
| 2026-04-25 00:26 | 45.45415 | -104.56374 | 35013 ft | 502 kts | 32° |
| 2026-04-25 00:27 | 45.51061 | -104.50609 | 35010 ft | 501 kts | 32° |
| 2026-04-25 00:27 | 45.56736 | -104.44802 | 35001 ft | 501 kts | 32° |
| 2026-04-25 00:28 | 45.62374 | -104.39017 | 35004 ft | 501 kts | 32° |
| 2026-04-25 00:28 | 45.68044 | -104.33185 | 35007 ft | 501 kts | 32° |
| 2026-04-25 00:29 | 45.73711 | -104.27340 | 35000 ft | 500 kts | 32° |
| 2026-04-25 00:29 | 45.79323 | -104.21538 | 35002 ft | 500 kts | 32° |
| 2026-04-25 00:30 | 45.84988 | -104.15667 | 35001 ft | 501 kts | 32° |
| 2026-04-25 00:30 | 45.90614 | -104.09822 | 34998 ft | 501 kts | 32° |
| 2026-04-25 00:31 | 45.96269 | -104.03930 | 34995 ft | 501 kts | 32° |
| 2026-04-25 00:31 | 46.01909 | -103.98128 | 34995 ft | 500 kts | 31° |
| 2026-04-25 00:32 | 46.07707 | -103.92546 | 34989 ft | 501 kts | 30° |
| 2026-04-25 00:32 | 46.13544 | -103.87014 | 35005 ft | 501 kts | 30° |
| 2026-04-25 00:33 | 46.19332 | -103.81482 | 34981 ft | 500 kts | 30° |
| 2026-04-25 00:33 | 46.25118 | -103.75909 | 34990 ft | 499 kts | 30° |
| 2026-04-25 00:34 | 46.30872 | -103.70343 | 34978 ft | 499 kts | 30° |
| 2026-04-25 00:34 | 46.36652 | -103.64737 | 34992 ft | 500 kts | 30° |
| 2026-04-25 00:35 | 46.42440 | -103.59109 | 34980 ft | 499 kts | 30° |
| 2026-04-25 00:35 | 46.48193 | -103.53501 | 34978 ft | 499 kts | 30° |
| 2026-04-25 00:36 | 46.53935 | -103.47889 | 34974 ft | 499 kts | 30° |
| 2026-04-25 00:36 | 46.59713 | -103.42228 | 34991 ft | 500 kts | 31° |
| 2026-04-25 00:37 | 46.65486 | -103.36558 | 34967 ft | 500 kts | 31° |
| 2026-04-25 00:37 | 46.71219 | -103.30912 | 34966 ft | 500 kts | 31° |
| 2026-04-25 00:38 | 46.76991 | -103.25211 | 34963 ft | 500 kts | 31° |
| 2026-04-25 00:38 | 46.82718 | -103.19541 | 34959 ft | 500 kts | 31° |
| 2026-04-25 00:39 | 46.88497 | -103.13805 | 34957 ft | 500 kts | 31° |
| 2026-04-25 00:39 | 46.94224 | -103.08105 | 34935 ft | 501 kts | 31° |
| 2026-04-25 00:40 | 46.99968 | -103.02372 | 34935 ft | 501 kts | 31° |
| 2026-04-25 00:40 | 47.05739 | -102.96598 | 34940 ft | 501 kts | 31° |
| 2026-04-25 00:41 | 47.11474 | -102.90844 | 34950 ft | 501 kts | 31° |
| 2026-04-25 00:41 | 47.17252 | -102.85031 | 34949 ft | 501 kts | 31° |
| 2026-04-25 00:42 | 47.22977 | -102.79258 | 34947 ft | 502 kts | 31° |
| 2026-04-25 00:42 | 47.28724 | -102.73446 | 34947 ft | 502 kts | 31° |
| 2026-04-25 00:43 | 47.34490 | -102.67598 | 34941 ft | 502 kts | 32° |
| 2026-04-25 00:43 | 47.40227 | -102.61764 | 34941 ft | 502 kts | 32° |
| 2026-04-25 00:44 | 47.45986 | -102.55892 | 34936 ft | 502 kts | 32° |
| 2026-04-25 00:44 | 47.51718 | -102.50032 | 34936 ft | 502 kts | 32° |
| 2026-04-25 00:45 | 47.57482 | -102.44124 | 34932 ft | 503 kts | 32° |
| 2026-04-25 00:45 | 47.63238 | -102.38208 | 34931 ft | 503 kts | 32° |
| 2026-04-25 00:46 | 47.68959 | -102.32312 | 34927 ft | 503 kts | 32° |
| 2026-04-25 00:47 | 47.77555 | -102.23422 | 34925 ft | 503 kts | 32° |
| 2026-04-25 00:47 | 47.83299 | -102.17461 | 34920 ft | 502 kts | 32° |
| 2026-04-25 00:48 | 47.89007 | -102.11520 | 34923 ft | 502 kts | 32° |
| 2026-04-25 00:48 | 47.94750 | -102.05528 | 34916 ft | 502 kts | 32° |
| 2026-04-25 00:49 | 48.00636 | -101.99952 | 34921 ft | 498 kts | 22° |
| 2026-04-25 00:49 | 48.06960 | -101.95877 | 34932 ft | 497 kts | 19° |
| 2026-04-25 00:50 | 48.12328 | -101.92694 | 34923 ft | 498 kts | 18° |
| 2026-04-25 00:50 | 48.18807 | -101.88921 | 34922 ft | 498 kts | 19° |
| 2026-04-25 00:51 | 48.26301 | -101.84521 | 34915 ft | 499 kts | 19° |
| 2026-04-25 00:51 | 48.31687 | -101.81330 | 34911 ft | 498 kts | 18° |
| 2026-04-25 00:52 | 48.38145 | -101.77485 | 34898 ft | 498 kts | 19° |
| 2026-04-25 00:52 | 48.44570 | -101.73644 | 34889 ft | 498 kts | 19° |
| 2026-04-25 00:53 | 48.51037 | -101.69786 | 34885 ft | 500 kts | 19° |
| 2026-04-25 00:53 | 48.57484 | -101.65919 | 34915 ft | 501 kts | 19° |
| 2026-04-25 00:54 | 48.63960 | -101.62017 | 34928 ft | 501 kts | 19° |
| 2026-04-25 00:54 | 48.70417 | -101.58123 | 34918 ft | 500 kts | 20° |
| 2026-04-25 00:55 | 48.76910 | -101.54194 | 34924 ft | 501 kts | 19° |
| 2026-04-25 00:55 | 48.83350 | -101.50286 | 34922 ft | 501 kts | 19° |
| 2026-04-25 00:56 | 48.89834 | -101.46339 | 34922 ft | 501 kts | 19° |
| 2026-04-25 00:56 | 48.96343 | -101.42375 | 34936 ft | 503 kts | 20° |
| 2026-04-25 00:57 | 49.02810 | -101.38420 | 34922 ft | 505 kts | 20° |
| 2026-04-25 00:57 | 49.09316 | -101.34425 | 34916 ft | 505 kts | 20° |
| 2026-04-25 00:58 | 49.15840 | -101.30413 | 34916 ft | 505 kts | 20° |
| 2026-04-25 00:58 | 49.22362 | -101.26390 | 34918 ft | 504 kts | 20° |
| 2026-04-25 00:59 | 49.28878 | -101.22357 | 34913 ft | 504 kts | 20° |
| 2026-04-25 00:59 | 49.35364 | -101.18334 | 34903 ft | 505 kts | 20° |
| 2026-04-25 01:00 | 49.41920 | -101.14253 | 34909 ft | 508 kts | 20° |
| 2026-04-25 01:00 | 49.48442 | -101.10185 | 34902 ft | 508 kts | 21° |
| 2026-04-25 01:01 | 49.54998 | -101.06088 | 34896 ft | 507 kts | 21° |
| 2026-04-25 01:01 | 49.61513 | -101.02001 | 34894 ft | 508 kts | 21° |
| 2026-04-25 01:02 | 49.68075 | -100.97868 | 34901 ft | 508 kts | 21° |
| 2026-04-25 01:02 | 49.74639 | -100.93722 | 34884 ft | 507 kts | 21° |
| 2026-04-25 01:03 | 49.81146 | -100.89602 | 34877 ft | 507 kts | 21° |
| 2026-04-25 01:03 | 49.87716 | -100.85433 | 34875 ft | 509 kts | 22° |
| 2026-04-25 01:04 | 49.94235 | -100.81283 | 34873 ft | 509 kts | 22° |
| 2026-04-25 01:04 | 50.00807 | -100.77084 | 34872 ft | 509 kts | 22° |
| 2026-04-25 01:05 | 50.07345 | -100.72894 | 34865 ft | 509 kts | 22° |
| 2026-04-25 01:05 | 50.13909 | -100.68677 | 34856 ft | 509 kts | 22° |
| 2026-04-25 01:06 | 50.20431 | -100.64474 | 34864 ft | 509 kts | 22° |
| 2026-04-25 01:06 | 50.26992 | -100.60236 | 34853 ft | 509 kts | 23° |
| 2026-04-25 01:07 | 50.33526 | -100.56002 | 34857 ft | 510 kts | 23° |
| 2026-04-25 01:07 | 50.40122 | -100.51712 | 34857 ft | 510 kts | 23° |
| 2026-04-25 01:08 | 50.46652 | -100.47452 | 34850 ft | 510 kts | 23° |
| 2026-04-25 01:08 | 50.53227 | -100.43149 | 34845 ft | 510 kts | 23° |
| 2026-04-25 01:09 | 50.59755 | -100.38865 | 34847 ft | 510 kts | 23° |
| 2026-04-25 01:09 | 50.66320 | -100.34546 | 34839 ft | 510 kts | 23° |
| 2026-04-25 01:10 | 50.72850 | -100.30239 | 34836 ft | 511 kts | 24° |
| 2026-04-25 01:10 | 50.79433 | -100.25879 | 34835 ft | 512 kts | 24° |
| 2026-04-25 01:11 | 50.85967 | -100.21536 | 34823 ft | 512 kts | 24° |
| 2026-04-25 01:11 | 50.92542 | -100.17156 | 34811 ft | 511 kts | 24° |
| 2026-04-25 01:12 | 50.99105 | -100.12769 | 34800 ft | 510 kts | 24° |
| 2026-04-25 01:12 | 51.05617 | -100.08405 | 34795 ft | 510 kts | 24° |
| 2026-04-25 01:13 | 51.12195 | -100.04025 | 34796 ft | 510 kts | 23° |
| 2026-04-25 01:13 | 51.18770 | -99.99849 | 34788 ft | 511 kts | 23° |
| 2026-04-25 01:14 | 51.25417 | -99.95673 | 34806 ft | 512 kts | 23° |
| 2026-04-25 01:14 | 51.32030 | -99.91486 | 34815 ft | 512 kts | 23° |
| 2026-04-25 01:15 | 51.38614 | -99.87289 | 34830 ft | 512 kts | 23° |
| 2026-04-25 01:15 | 51.45253 | -99.83039 | 34832 ft | 511 kts | 24° |
| 2026-04-25 01:16 | 51.51824 | -99.78818 | 34832 ft | 511 kts | 24° |
| 2026-04-25 01:16 | 51.58437 | -99.74558 | 34832 ft | 511 kts | 24° |
| 2026-04-25 01:17 | 51.65003 | -99.70316 | 34834 ft | 511 kts | 24° |
| 2026-04-25 01:17 | 51.71613 | -99.66030 | 34833 ft | 511 kts | 24° |
| 2026-04-25 01:18 | 51.78199 | -99.61748 | 34834 ft | 511 kts | 24° |
| 2026-04-25 01:18 | 51.84808 | -99.57438 | 34840 ft | 511 kts | 24° |
| 2026-04-25 01:19 | 51.91390 | -99.53132 | 34832 ft | 511 kts | 25° |
| 2026-04-25 01:19 | 51.97997 | -99.48795 | 34839 ft | 511 kts | 25° |
| 2026-04-25 01:20 | 52.04558 | -99.44475 | 34843 ft | 511 kts | 25° |
| 2026-04-25 01:20 | 52.11160 | -99.40113 | 34839 ft | 511 kts | 25° |
| 2026-04-25 01:21 | 52.17710 | -99.35773 | 34832 ft | 510 kts | 25° |
| 2026-04-25 01:21 | 52.24306 | -99.31387 | 34839 ft | 510 kts | 25° |
| 2026-04-25 01:22 | 52.30871 | -99.27008 | 34844 ft | 510 kts | 25° |
| 2026-04-25 01:22 | 52.37424 | -99.22624 | 34842 ft | 510 kts | 25° |
| 2026-04-25 01:23 | 52.44020 | -99.18196 | 34842 ft | 510 kts | 26° |
| 2026-04-25 01:23 | 52.50557 | -99.13794 | 34846 ft | 510 kts | 26° |
| 2026-04-25 01:24 | 52.57123 | -99.09358 | 34844 ft | 510 kts | 26° |
| 2026-04-25 01:24 | 52.63652 | -99.04932 | 34837 ft | 510 kts | 26° |
| 2026-04-25 01:25 | 52.70230 | -99.00467 | 34847 ft | 511 kts | 27° |
| 2026-04-25 01:25 | 52.76792 | -98.95986 | 34843 ft | 512 kts | 27° |
| 2026-04-25 01:26 | 52.83373 | -98.91478 | 34837 ft | 512 kts | 27° |
| 2026-04-25 01:26 | 52.89959 | -98.86954 | 34845 ft | 512 kts | 27° |
| 2026-04-25 01:27 | 52.96508 | -98.82443 | 34844 ft | 512 kts | 27° |
| 2026-04-25 01:27 | 53.03104 | -98.77883 | 34842 ft | 512 kts | 27° |
| 2026-04-25 01:28 | 53.12954 | -98.71045 | 34851 ft | 511 kts | 27° |
| 2026-04-25 01:28 | 53.19497 | -98.66495 | 34845 ft | 511 kts | 28° |
| 2026-04-25 01:29 | 53.26080 | -98.61889 | 34857 ft | 512 kts | 28° |
| 2026-04-25 01:29 | 53.32647 | -98.57274 | 34856 ft | 512 kts | 28° |
| 2026-04-25 01:30 | 53.39202 | -98.52656 | 34860 ft | 512 kts | 28° |
| 2026-04-25 01:30 | 53.45779 | -98.48010 | 34860 ft | 511 kts | 28° |
| 2026-04-25 01:31 | 53.52301 | -98.43389 | 34875 ft | 510 kts | 28° |
| 2026-04-25 01:31 | 53.58837 | -98.38741 | 34874 ft | 509 kts | 28° |
| 2026-04-25 01:32 | 53.65332 | -98.34105 | 34874 ft | 509 kts | 28° |
| 2026-04-25 01:32 | 53.71863 | -98.29437 | 34867 ft | 508 kts | 29° |
| 2026-04-25 01:33 | 53.78351 | -98.24776 | 34882 ft | 505 kts | 29° |
| 2026-04-25 01:33 | 53.84826 | -98.20103 | 34878 ft | 505 kts | 29° |
| 2026-04-25 01:34 | 53.91260 | -98.15445 | 34880 ft | 505 kts | 29° |
| 2026-04-25 01:34 | 53.97730 | -98.10749 | 34852 ft | 505 kts | 30° |
| 2026-04-25 01:35 | 54.04157 | -98.06070 | 34874 ft | 504 kts | 30° |
| 2026-04-25 01:35 | 54.10630 | -98.01341 | 34880 ft | 504 kts | 30° |
| 2026-04-25 01:36 | 54.17065 | -97.96623 | 34908 ft | 504 kts | 30° |
| 2026-04-25 01:36 | 54.23484 | -97.91904 | 34912 ft | 505 kts | 30° |
| 2026-04-25 01:37 | 54.29938 | -97.87136 | 34917 ft | 505 kts | 30° |
| 2026-04-25 01:37 | 54.36396 | -97.82352 | 34917 ft | 505 kts | 30° |
| 2026-04-25 01:38 | 54.42816 | -97.77581 | 34919 ft | 505 kts | 30° |
| 2026-04-25 01:38 | 54.48218 | -97.73553 | 34920 ft | 505 kts | 30° |
| 2026-04-25 01:39 | 54.54640 | -97.68752 | 34926 ft | 505 kts | 31° |
| 2026-04-25 01:39 | 54.61093 | -97.63908 | 34926 ft | 504 kts | 31° |
| 2026-04-25 01:40 | 54.67496 | -97.59085 | 34930 ft | 504 kts | 31° |
| 2026-04-25 01:40 | 54.73943 | -97.54215 | 34932 ft | 505 kts | 31° |
| 2026-04-25 01:41 | 54.80364 | -97.49342 | 34931 ft | 507 kts | 32° |
| 2026-04-25 01:41 | 54.86848 | -97.44406 | 34938 ft | 507 kts | 32° |
| 2026-04-25 01:42 | 54.93321 | -97.39465 | 34945 ft | 507 kts | 32° |
| 2026-04-25 01:42 | 54.99762 | -97.34529 | 34942 ft | 507 kts | 32° |
| 2026-04-25 01:43 | 55.06223 | -97.29560 | 34928 ft | 507 kts | 33° |
| 2026-04-25 01:43 | 55.12653 | -97.24597 | 34947 ft | 508 kts | 33° |
| 2026-04-25 01:44 | 55.19130 | -97.19580 | 34962 ft | 508 kts | 33° |
| 2026-04-25 01:44 | 55.25558 | -97.14585 | 34943 ft | 508 kts | 33° |
| 2026-04-25 01:45 | 55.32050 | -97.09517 | 34920 ft | 511 kts | 34° |
| 2026-04-25 01:45 | 55.38549 | -97.04427 | 34962 ft | 511 kts | 34° |
| 2026-04-25 01:46 | 55.45051 | -96.99321 | 34970 ft | 511 kts | 34° |
| 2026-04-25 01:46 | 55.51504 | -96.94234 | 34974 ft | 511 kts | 34° |
| 2026-04-25 01:47 | 55.58016 | -96.89081 | 34976 ft | 511 kts | 34° |
| 2026-04-25 01:47 | 55.64459 | -96.83964 | 34978 ft | 510 kts | 34° |
| 2026-04-25 01:48 | 55.70946 | -96.78792 | 34985 ft | 509 kts | 34° |
| 2026-04-25 01:48 | 55.77381 | -96.73642 | 34956 ft | 509 kts | 34° |
| 2026-04-25 01:49 | 55.83874 | -96.68424 | 34993 ft | 510 kts | 34° |
| 2026-04-25 01:49 | 55.90317 | -96.63231 | 34993 ft | 510 kts | 34° |
| 2026-04-25 01:50 | 55.96803 | -96.57985 | 34995 ft | 510 kts | 34° |
| 2026-04-25 01:50 | 56.03242 | -96.52757 | 35002 ft | 510 kts | 34° |
| 2026-04-25 01:51 | 56.09725 | -96.47472 | 35002 ft | 510 kts | 34° |
| 2026-04-25 01:51 | 56.16153 | -96.42215 | 34996 ft | 510 kts | 34° |
| 2026-04-25 01:52 | 56.22611 | -96.36913 | 35015 ft | 510 kts | 34° |
| 2026-04-25 01:52 | 56.29080 | -96.31581 | 35016 ft | 510 kts | 34° |
| 2026-04-25 01:53 | 56.35507 | -96.26260 | 35020 ft | 511 kts | 34° |
| 2026-04-25 01:53 | 56.41974 | -96.20888 | 35027 ft | 511 kts | 34° |
| 2026-04-25 01:54 | 56.48410 | -96.15526 | 35030 ft | 512 kts | 34° |
| 2026-04-25 01:54 | 56.54894 | -96.10104 | 35030 ft | 512 kts | 34° |
| 2026-04-25 01:55 | 56.61326 | -96.04703 | 35036 ft | 512 kts | 34° |
| 2026-04-25 01:55 | 56.67803 | -95.99244 | 35046 ft | 512 kts | 34° |
| 2026-04-25 01:56 | 56.74276 | -95.93767 | 35052 ft | 512 kts | 34° |
| 2026-04-25 01:56 | 56.80701 | -95.88309 | 35052 ft | 512 kts | 34° |
| 2026-04-25 01:57 | 56.90352 | -95.80074 | 35067 ft | 511 kts | 34° |
| 2026-04-25 01:58 | 56.96804 | -95.74541 | 35081 ft | 511 kts | 34° |
| 2026-04-25 01:58 | 57.03237 | -95.69001 | 35076 ft | 512 kts | 33° |
| 2026-04-25 01:59 | 57.09704 | -95.63411 | 35088 ft | 513 kts | 34° |
| 2026-04-25 01:59 | 57.16168 | -95.57805 | 35099 ft | 513 kts | 34° |
| 2026-04-25 02:00 | 57.22601 | -95.52204 | 35099 ft | 513 kts | 34° |
| 2026-04-25 02:00 | 57.29078 | -95.46539 | 35115 ft | 513 kts | 33° |
| 2026-04-25 02:01 | 57.35490 | -95.40914 | 35118 ft | 513 kts | 33° |
| 2026-04-25 02:01 | 57.41951 | -95.35222 | 35126 ft | 512 kts | 33° |
| 2026-04-25 02:02 | 57.48367 | -95.29548 | 35127 ft | 512 kts | 33° |
| 2026-04-25 02:02 | 57.54814 | -95.23822 | 35104 ft | 512 kts | 33° |
| 2026-04-25 02:03 | 57.61210 | -95.18121 | 35159 ft | 510 kts | 33° |
| 2026-04-25 02:03 | 57.67619 | -95.12387 | 35160 ft | 509 kts | 33° |
| 2026-04-25 02:04 | 57.73987 | -95.06664 | 35182 ft | 509 kts | 33° |
| 2026-04-25 02:04 | 57.80345 | -95.00927 | 35181 ft | 509 kts | 33° |
| 2026-04-25 02:05 | 57.86709 | -94.95162 | 35191 ft | 509 kts | 33° |
| 2026-04-25 02:05 | 57.93093 | -94.89357 | 35193 ft | 509 kts | 33° |
| 2026-04-25 02:06 | 57.99449 | -94.83550 | 35210 ft | 510 kts | 33° |
| 2026-04-25 02:06 | 58.05849 | -94.77687 | 35222 ft | 510 kts | 33° |
| 2026-04-25 02:07 | 58.12212 | -94.71835 | 35211 ft | 510 kts | 32° |
| 2026-04-25 02:07 | 58.18599 | -94.65935 | 35238 ft | 509 kts | 32° |
| 2026-04-25 02:08 | 58.24966 | -94.60031 | 35238 ft | 509 kts | 32° |
| 2026-04-25 02:08 | 58.31307 | -94.54126 | 35244 ft | 509 kts | 32° |
| 2026-04-25 02:09 | 58.37680 | -94.48166 | 35246 ft | 509 kts | 32° |
| 2026-04-25 02:09 | 58.43997 | -94.42235 | 35262 ft | 509 kts | 32° |
| 2026-04-25 02:10 | 58.50356 | -94.36241 | 35236 ft | 509 kts | 32° |
| 2026-04-25 02:10 | 58.56699 | -94.30237 | 35279 ft | 507 kts | 32° |
| 2026-04-25 02:11 | 58.62997 | -94.24254 | 35291 ft | 507 kts | 32° |
| 2026-04-25 02:11 | 58.69328 | -94.18214 | 35293 ft | 507 kts | 32° |
| 2026-04-25 02:12 | 58.75371 | -94.11406 | 35294 ft | 497 kts | 43° |
| 2026-04-25 02:12 | 58.80807 | -94.03275 | 35294 ft | 496 kts | 45° |
| 2026-04-25 02:13 | 58.86153 | -93.94847 | 35296 ft | 495 kts | 46° |
| 2026-04-25 02:13 | 58.91473 | -93.86359 | 35300 ft | 495 kts | 46° |
| 2026-04-25 02:14 | 58.96775 | -93.77899 | 35294 ft | 495 kts | 45° |
| 2026-04-25 02:14 | 59.02109 | -93.69379 | 35333 ft | 495 kts | 45° |
| 2026-04-25 02:15 | 59.07399 | -93.60902 | 35330 ft | 496 kts | 45° |
| 2026-04-25 02:15 | 59.12738 | -93.52311 | 35346 ft | 496 kts | 45° |
| 2026-04-25 02:16 | 59.18025 | -93.43767 | 35343 ft | 496 kts | 45° |
| 2026-04-25 02:16 | 59.23312 | -93.35187 | 35357 ft | 495 kts | 45° |
| 2026-04-25 02:17 | 59.28616 | -93.26542 | 35360 ft | 495 kts | 45° |
| 2026-04-25 02:17 | 59.33927 | -93.17848 | 35369 ft | 498 kts | 44° |
| 2026-04-25 02:18 | 59.39221 | -93.09147 | 35387 ft | 499 kts | 44° |
| 2026-04-25 02:18 | 59.44545 | -93.00360 | 35387 ft | 499 kts | 44° |
| 2026-04-25 02:19 | 59.49828 | -92.91605 | 35405 ft | 499 kts | 44° |
| 2026-04-25 02:19 | 59.55145 | -92.82755 | 35411 ft | 499 kts | 44° |
| 2026-04-25 02:20 | 59.60429 | -92.73921 | 35426 ft | 499 kts | 44° |
| 2026-04-25 02:20 | 59.65743 | -92.64998 | 35425 ft | 500 kts | 44° |
| 2026-04-25 02:21 | 59.71020 | -92.56102 | 35444 ft | 500 kts | 44° |
| 2026-04-25 02:21 | 59.76318 | -92.47132 | 35446 ft | 500 kts | 44° |
| 2026-04-25 02:22 | 59.81621 | -92.38112 | 35460 ft | 500 kts | 44° |
| 2026-04-25 02:22 | 59.86878 | -92.29132 | 35468 ft | 500 kts | 44° |
| 2026-04-25 02:23 | 59.92143 | -92.20099 | 35465 ft | 502 kts | 44° |
| 2026-04-25 02:23 | 59.97440 | -92.10972 | 35487 ft | 502 kts | 44° |
| 2026-04-25 02:24 | 60.02742 | -92.01796 | 35489 ft | 502 kts | 44° |
| 2026-04-25 02:24 | 60.07982 | -91.92689 | 35495 ft | 502 kts | 44° |
| 2026-04-25 02:25 | 60.13257 | -91.83480 | 35500 ft | 502 kts | 44° |
| 2026-04-25 02:25 | 60.18516 | -91.74255 | 35515 ft | 502 kts | 43° |
| 2026-04-25 02:26 | 60.23774 | -91.64992 | 35516 ft | 504 kts | 43° |
| 2026-04-25 02:26 | 60.29022 | -91.55708 | 35533 ft | 504 kts | 43° |
| 2026-04-25 02:27 | 60.34301 | -91.46328 | 35535 ft | 504 kts | 44° |
| 2026-04-25 02:27 | 60.38685 | -91.38504 | 35536 ft | 504 kts | 44° |
| 2026-04-25 02:28 | 60.43942 | -91.29085 | 35546 ft | 504 kts | 43° |
| 2026-04-25 02:28 | 60.49153 | -91.19706 | 35550 ft | 505 kts | 43° |
| 2026-04-25 02:29 | 60.54417 | -91.10187 | 35562 ft | 506 kts | 43° |
| 2026-04-25 02:29 | 60.59682 | -91.00625 | 35564 ft | 506 kts | 43° |
| 2026-04-25 02:30 | 60.64930 | -90.91049 | 35577 ft | 506 kts | 43° |
| 2026-04-25 02:30 | 60.70146 | -90.81490 | 35578 ft | 506 kts | 43° |
| 2026-04-25 02:31 | 60.75394 | -90.71827 | 35592 ft | 506 kts | 43° |